sensor_id;sensor_type;location;lat;lon;timestamp;P1;durP1;ratioP1;P2;durP2;ratioP2
13520;SDS011;6832;51.186;3.236;2024-02-26T00:02:01;51.20;;;11.90;;
13520;SDS011;6832;51.186;3.236;2024-02-26T00:04:29;43.60;;;12.17;;
13520;SDS011;6832;51.186;3.236;2024-02-26T00:06:56;49.50;;;12.13;;
13520;SDS011;6832;51.186;3.236;2024-02-26T00:09:23;57.20;;;13.37;;
13520;SDS011;6832;51.186;3.236;2024-02-26T00:11:50;45.67;;;12.70;;
13520;SDS011;6832;51.186;3.236;2024-02-26T00:14:17;40.67;;;12.70;;
13520;SDS011;6832;51.186;3.236;2024-02-26T00:16:44;37.67;;;11.47;;
13520;SDS011;6832;51.186;3.236;2024-02-26T00:19:11;47.63;;;11.43;;
13520;SDS011;6832;51.186;3.236;2024-02-26T00:21:41;58.70;;;12.97;;
13520;SDS011;6832;51.186;3.236;2024-02-26T00:24:08;43.77;;;13.63;;
13520;SDS011;6832;51.186;3.236;2024-02-26T00:26:34;54.83;;;11.87;;
13520;SDS011;6832;51.186;3.236;2024-02-26T00:29:01;46.90;;;10.83;;
13520;SDS011;6832;51.186;3.236;2024-02-26T00:31:28;44.67;;;12.00;;
13520;SDS011;6832;51.186;3.236;2024-02-26T00:33:55;50.17;;;13.00;;
13520;SDS011;6832;51.186;3.236;2024-02-26T00:36:22;45.00;;;11.27;;
13520;SDS011;6832;51.186;3.236;2024-02-26T00:38:50;42.43;;;12.50;;
13520;SDS011;6832;51.186;3.236;2024-02-26T00:41:17;50.20;;;12.00;;
13520;SDS011;6832;51.186;3.236;2024-02-26T00:43:44;52.33;;;12.10;;
13520;SDS011;6832;51.186;3.236;2024-02-26T00:46:11;54.63;;;13.23;;
13520;SDS011;6832;51.186;3.236;2024-02-26T00:48:38;45.97;;;11.67;;
13520;SDS011;6832;51.186;3.236;2024-02-26T00:51:05;44.47;;;13.30;;
13520;SDS011;6832;51.186;3.236;2024-02-26T00:53:32;59.60;;;13.60;;
13520;SDS011;6832;51.186;3.236;2024-02-26T00:56:01;53.03;;;12.00;;
13520;SDS011;6832;51.186;3.236;2024-02-26T00:58:28;43.33;;;11.83;;
13520;SDS011;6832;51.186;3.236;2024-02-26T01:00:54;55.70;;;12.83;;
13520;SDS011;6832;51.186;3.236;2024-02-26T01:03:21;53.50;;;13.13;;
13520;SDS011;6832;51.186;3.236;2024-02-26T01:05:48;49.33;;;12.07;;
13520;SDS011;6832;51.186;3.236;2024-02-26T01:08:15;61.80;;;12.53;;
13520;SDS011;6832;51.186;3.236;2024-02-26T01:10:42;48.70;;;12.43;;
13520;SDS011;6832;51.186;3.236;2024-02-26T01:13:10;44.30;;;11.90;;
13520;SDS011;6832;51.186;3.236;2024-02-26T01:15:37;49.80;;;12.17;;
13520;SDS011;6832;51.186;3.236;2024-02-26T01:18:05;38.43;;;11.80;;
13520;SDS011;6832;51.186;3.236;2024-02-26T01:20:32;50.53;;;12.13;;
13520;SDS011;6832;51.186;3.236;2024-02-26T01:22:59;59.97;;;14.23;;
13520;SDS011;6832;51.186;3.236;2024-02-26T01:25:26;45.53;;;12.53;;
13520;SDS011;6832;51.186;3.236;2024-02-26T01:27:53;45.87;;;12.03;;
13520;SDS011;6832;51.186;3.236;2024-02-26T01:30:22;53.80;;;13.60;;
13520;SDS011;6832;51.186;3.236;2024-02-26T01:32:48;52.80;;;12.67;;
13520;SDS011;6832;51.186;3.236;2024-02-26T01:35:15;53.50;;;12.57;;
13520;SDS011;6832;51.186;3.236;2024-02-26T01:37:42;49.43;;;11.93;;
13520;SDS011;6832;51.186;3.236;2024-02-26T01:40:12;49.00;;;12.70;;
13520;SDS011;6832;51.186;3.236;2024-02-26T01:42:43;37.07;;;11.77;;
13520;SDS011;6832;51.186;3.236;2024-02-26T01:45:12;55.70;;;12.47;;
13520;SDS011;6832;51.186;3.236;2024-02-26T01:47:48;48.43;;;12.03;;
13520;SDS011;6832;51.186;3.236;2024-02-26T01:50:16;45.90;;;12.13;;
13520;SDS011;6832;51.186;3.236;2024-02-26T01:52:43;46.73;;;13.13;;
13520;SDS011;6832;51.186;3.236;2024-02-26T01:55:11;47.97;;;11.93;;
13520;SDS011;6832;51.186;3.236;2024-02-26T01:57:40;38.17;;;12.20;;
13520;SDS011;6832;51.186;3.236;2024-02-26T02:00:08;53.10;;;12.67;;
13520;SDS011;6832;51.186;3.236;2024-02-26T02:02:36;44.10;;;12.60;;
13520;SDS011;6832;51.186;3.236;2024-02-26T02:05:08;58.40;;;13.67;;
13520;SDS011;6832;51.186;3.236;2024-02-26T02:07:36;65.47;;;13.20;;
13520;SDS011;6832;51.186;3.236;2024-02-26T02:10:03;52.73;;;12.13;;
13520;SDS011;6832;51.186;3.236;2024-02-26T02:12:32;53.30;;;11.93;;
13520;SDS011;6832;51.186;3.236;2024-02-26T02:14:59;45.60;;;12.40;;
13520;SDS011;6832;51.186;3.236;2024-02-26T02:17:26;44.97;;;11.37;;
13520;SDS011;6832;51.186;3.236;2024-02-26T02:19:54;52.63;;;12.53;;
13520;SDS011;6832;51.186;3.236;2024-02-26T02:22:22;52.40;;;13.53;;
13520;SDS011;6832;51.186;3.236;2024-02-26T02:24:50;56.30;;;12.43;;
13520;SDS011;6832;51.186;3.236;2024-02-26T02:27:18;52.37;;;12.47;;
13520;SDS011;6832;51.186;3.236;2024-02-26T02:29:46;40.90;;;11.20;;
13520;SDS011;6832;51.186;3.236;2024-02-26T02:32:14;67.27;;;13.00;;
13520;SDS011;6832;51.186;3.236;2024-02-26T02:34:42;45.13;;;12.20;;
13520;SDS011;6832;51.186;3.236;2024-02-26T02:37:09;56.13;;;12.60;;
13520;SDS011;6832;51.186;3.236;2024-02-26T02:39:37;56.53;;;13.13;;
13520;SDS011;6832;51.186;3.236;2024-02-26T02:42:04;58.33;;;12.23;;
13520;SDS011;6832;51.186;3.236;2024-02-26T02:44:31;52.17;;;14.23;;
13520;SDS011;6832;51.186;3.236;2024-02-26T02:46:58;37.90;;;11.27;;
13520;SDS011;6832;51.186;3.236;2024-02-26T02:49:25;61.83;;;13.10;;
13520;SDS011;6832;51.186;3.236;2024-02-26T02:51:52;36.97;;;11.87;;
13520;SDS011;6832;51.186;3.236;2024-02-26T02:54:19;59.47;;;13.37;;
13520;SDS011;6832;51.186;3.236;2024-02-26T02:56:47;39.30;;;11.70;;
13520;SDS011;6832;51.186;3.236;2024-02-26T02:59:14;37.50;;;11.40;;
13520;SDS011;6832;51.186;3.236;2024-02-26T03:01:41;40.00;;;11.93;;
13520;SDS011;6832;51.186;3.236;2024-02-26T03:04:08;50.20;;;13.07;;
13520;SDS011;6832;51.186;3.236;2024-02-26T03:06:35;42.93;;;11.33;;
13520;SDS011;6832;51.186;3.236;2024-02-26T03:09:02;44.73;;;10.97;;
13520;SDS011;6832;51.186;3.236;2024-02-26T03:11:29;50.87;;;12.30;;
13520;SDS011;6832;51.186;3.236;2024-02-26T03:13:57;49.30;;;12.13;;
13520;SDS011;6832;51.186;3.236;2024-02-26T03:16:27;48.47;;;13.07;;
13520;SDS011;6832;51.186;3.236;2024-02-26T03:18:54;33.80;;;10.93;;
13520;SDS011;6832;51.186;3.236;2024-02-26T03:21:21;44.87;;;12.40;;
13520;SDS011;6832;51.186;3.236;2024-02-26T03:23:48;35.40;;;14.87;;
13520;SDS011;6832;51.186;3.236;2024-02-26T03:26:15;38.00;;;11.53;;
13520;SDS011;6832;51.186;3.236;2024-02-26T03:28:41;49.80;;;12.27;;
13520;SDS011;6832;51.186;3.236;2024-02-26T03:31:10;60.33;;;12.33;;
13520;SDS011;6832;51.186;3.236;2024-02-26T03:33:37;45.03;;;11.60;;
13520;SDS011;6832;51.186;3.236;2024-02-26T03:36:04;36.80;;;11.63;;
13520;SDS011;6832;51.186;3.236;2024-02-26T03:38:32;41.27;;;11.23;;
13520;SDS011;6832;51.186;3.236;2024-02-26T03:40:59;34.67;;;11.27;;
13520;SDS011;6832;51.186;3.236;2024-02-26T03:43:26;42.20;;;11.20;;
13520;SDS011;6832;51.186;3.236;2024-02-26T03:45:53;42.77;;;12.83;;
13520;SDS011;6832;51.186;3.236;2024-02-26T03:48:21;48.43;;;13.37;;
13520;SDS011;6832;51.186;3.236;2024-02-26T03:50:48;45.73;;;11.70;;
13520;SDS011;6832;51.186;3.236;2024-02-26T03:53:15;33.33;;;11.50;;
13520;SDS011;6832;51.186;3.236;2024-02-26T03:55:41;51.40;;;12.57;;
13520;SDS011;6832;51.186;3.236;2024-02-26T03:58:08;39.33;;;12.13;;
13520;SDS011;6832;51.186;3.236;2024-02-26T04:00:35;42.70;;;13.03;;
13520;SDS011;6832;51.186;3.236;2024-02-26T04:03:03;34.30;;;10.83;;
13520;SDS011;6832;51.186;3.236;2024-02-26T04:05:31;36.30;;;11.73;;
13520;SDS011;6832;51.186;3.236;2024-02-26T04:07:58;53.03;;;12.40;;
13520;SDS011;6832;51.186;3.236;2024-02-26T04:10:25;39.50;;;11.40;;
13520;SDS011;6832;51.186;3.236;2024-02-26T04:12:52;54.90;;;12.50;;
13520;SDS011;6832;51.186;3.236;2024-02-26T04:15:19;43.23;;;11.63;;
13520;SDS011;6832;51.186;3.236;2024-02-26T04:17:45;46.53;;;12.80;;
13520;SDS011;6832;51.186;3.236;2024-02-26T04:20:13;47.27;;;11.53;;
13520;SDS011;6832;51.186;3.236;2024-02-26T04:22:43;39.30;;;11.60;;
13520;SDS011;6832;51.186;3.236;2024-02-26T04:25:10;36.67;;;12.00;;
13520;SDS011;6832;51.186;3.236;2024-02-26T04:27:38;44.47;;;11.40;;
13520;SDS011;6832;51.186;3.236;2024-02-26T04:30:06;51.07;;;12.93;;
13520;SDS011;6832;51.186;3.236;2024-02-26T04:32:33;82.10;;;13.87;;
13520;SDS011;6832;51.186;3.236;2024-02-26T04:35:00;46.63;;;12.17;;
13520;SDS011;6832;51.186;3.236;2024-02-26T04:37:28;42.37;;;12.37;;
13520;SDS011;6832;51.186;3.236;2024-02-26T04:39:58;44.37;;;11.77;;
13520;SDS011;6832;51.186;3.236;2024-02-26T04:42:25;40.90;;;11.87;;
13520;SDS011;6832;51.186;3.236;2024-02-26T04:44:52;53.57;;;13.23;;
13520;SDS011;6832;51.186;3.236;2024-02-26T04:47:20;43.73;;;11.93;;
13520;SDS011;6832;51.186;3.236;2024-02-26T04:49:48;40.00;;;11.33;;
13520;SDS011;6832;51.186;3.236;2024-02-26T04:52:15;53.70;;;12.73;;
13520;SDS011;6832;51.186;3.236;2024-02-26T04:54:42;45.53;;;11.43;;
13520;SDS011;6832;51.186;3.236;2024-02-26T04:57:11;49.83;;;12.60;;
13520;SDS011;6832;51.186;3.236;2024-02-26T04:59:37;36.97;;;10.93;;
13520;SDS011;6832;51.186;3.236;2024-02-26T05:02:06;37.90;;;11.27;;
13520;SDS011;6832;51.186;3.236;2024-02-26T05:04:32;40.57;;;12.43;;
13520;SDS011;6832;51.186;3.236;2024-02-26T05:06:59;49.93;;;12.97;;
13520;SDS011;6832;51.186;3.236;2024-02-26T05:09:26;38.53;;;10.63;;
13520;SDS011;6832;51.186;3.236;2024-02-26T05:11:53;44.33;;;11.53;;
13520;SDS011;6832;51.186;3.236;2024-02-26T05:14:21;42.40;;;12.57;;
13520;SDS011;6832;51.186;3.236;2024-02-26T05:16:48;36.00;;;10.97;;
13520;SDS011;6832;51.186;3.236;2024-02-26T05:19:15;51.37;;;12.90;;
13520;SDS011;6832;51.186;3.236;2024-02-26T05:21:42;62.53;;;12.20;;
13520;SDS011;6832;51.186;3.236;2024-02-26T05:24:09;50.10;;;12.90;;
13520;SDS011;6832;51.186;3.236;2024-02-26T05:26:36;50.03;;;12.13;;
13520;SDS011;6832;51.186;3.236;2024-02-26T05:29:03;43.73;;;11.53;;
13520;SDS011;6832;51.186;3.236;2024-02-26T05:31:31;44.93;;;11.90;;
13520;SDS011;6832;51.186;3.236;2024-02-26T05:33:58;40.47;;;12.13;;
13520;SDS011;6832;51.186;3.236;2024-02-26T05:36:25;46.17;;;12.13;;
13520;SDS011;6832;51.186;3.236;2024-02-26T05:38:53;45.20;;;12.90;;
13520;SDS011;6832;51.186;3.236;2024-02-26T05:41:20;45.70;;;11.53;;
13520;SDS011;6832;51.186;3.236;2024-02-26T05:43:51;40.97;;;13.13;;
13520;SDS011;6832;51.186;3.236;2024-02-26T05:46:18;40.50;;;11.23;;
13520;SDS011;6832;51.186;3.236;2024-02-26T05:48:48;46.20;;;11.53;;
13520;SDS011;6832;51.186;3.236;2024-02-26T05:51:15;52.17;;;11.60;;
13520;SDS011;6832;51.186;3.236;2024-02-26T05:53:42;35.37;;;11.00;;
13520;SDS011;6832;51.186;3.236;2024-02-26T05:56:09;47.23;;;12.67;;
13520;SDS011;6832;51.186;3.236;2024-02-26T05:58:36;34.60;;;10.00;;
13520;SDS011;6832;51.186;3.236;2024-02-26T06:01:03;41.23;;;11.10;;
13520;SDS011;6832;51.186;3.236;2024-02-26T06:03:30;54.90;;;13.47;;
13520;SDS011;6832;51.186;3.236;2024-02-26T06:05:59;39.07;;;10.13;;
13520;SDS011;6832;51.186;3.236;2024-02-26T06:08:25;53.27;;;12.53;;
13520;SDS011;6832;51.186;3.236;2024-02-26T06:10:52;36.47;;;11.70;;
13520;SDS011;6832;51.186;3.236;2024-02-26T06:13:19;50.63;;;12.87;;
13520;SDS011;6832;51.186;3.236;2024-02-26T06:15:46;45.13;;;11.40;;
13520;SDS011;6832;51.186;3.236;2024-02-26T06:18:13;32.43;;;10.80;;
13520;SDS011;6832;51.186;3.236;2024-02-26T06:20:41;80.17;;;14.80;;
13520;SDS011;6832;51.186;3.236;2024-02-26T06:23:09;34.40;;;10.77;;
13520;SDS011;6832;51.186;3.236;2024-02-26T06:25:36;39.47;;;10.87;;
13520;SDS011;6832;51.186;3.236;2024-02-26T06:28:03;40.93;;;11.03;;
13520;SDS011;6832;51.186;3.236;2024-02-26T06:30:30;51.43;;;12.17;;
13520;SDS011;6832;51.186;3.236;2024-02-26T06:32:57;40.80;;;12.13;;
13520;SDS011;6832;51.186;3.236;2024-02-26T06:35:23;46.57;;;11.00;;
13520;SDS011;6832;51.186;3.236;2024-02-26T06:37:50;39.57;;;11.87;;
13520;SDS011;6832;51.186;3.236;2024-02-26T06:40:19;45.37;;;11.57;;
13520;SDS011;6832;51.186;3.236;2024-02-26T06:42:46;39.07;;;12.33;;
13520;SDS011;6832;51.186;3.236;2024-02-26T06:45:13;48.13;;;11.60;;
13520;SDS011;6832;51.186;3.236;2024-02-26T06:47:40;50.50;;;10.90;;
13520;SDS011;6832;51.186;3.236;2024-02-26T06:50:08;39.40;;;11.33;;
13520;SDS011;6832;51.186;3.236;2024-02-26T06:52:35;69.40;;;32.27;;
13520;SDS011;6832;51.186;3.236;2024-02-26T06:55:02;45.33;;;16.37;;
13520;SDS011;6832;51.186;3.236;2024-02-26T06:57:31;60.13;;;17.27;;
13520;SDS011;6832;51.186;3.236;2024-02-26T06:59:58;45.57;;;16.17;;
13520;SDS011;6832;51.186;3.236;2024-02-26T07:02:25;71.30;;;18.43;;
13520;SDS011;6832;51.186;3.236;2024-02-26T07:04:52;43.77;;;15.90;;
13520;SDS011;6832;51.186;3.236;2024-02-26T07:07:19;54.70;;;16.73;;
13520;SDS011;6832;51.186;3.236;2024-02-26T07:09:47;46.50;;;18.07;;
13520;SDS011;6832;51.186;3.236;2024-02-26T07:12:14;81.20;;;18.10;;
13520;SDS011;6832;51.186;3.236;2024-02-26T07:14:43;50.27;;;17.23;;
13520;SDS011;6832;51.186;3.236;2024-02-26T07:17:11;40.33;;;16.00;;
13520;SDS011;6832;51.186;3.236;2024-02-26T07:19:38;47.87;;;17.23;;
13520;SDS011;6832;51.186;3.236;2024-02-26T07:22:05;48.47;;;16.57;;
13520;SDS011;6832;51.186;3.236;2024-02-26T07:24:32;47.03;;;17.00;;
13520;SDS011;6832;51.186;3.236;2024-02-26T07:26:59;46.57;;;15.87;;
13520;SDS011;6832;51.186;3.236;2024-02-26T07:29:26;59.97;;;18.23;;
13520;SDS011;6832;51.186;3.236;2024-02-26T07:31:54;57.88;;;18.70;;
13520;SDS011;6832;51.186;3.236;2024-02-26T07:34:21;75.67;;;20.10;;
13520;SDS011;6832;51.186;3.236;2024-02-26T07:36:52;48.17;;;16.40;;
13520;SDS011;6832;51.186;3.236;2024-02-26T07:39:20;61.23;;;16.17;;
13520;SDS011;6832;51.186;3.236;2024-02-26T07:41:46;81.13;;;19.50;;
13520;SDS011;6832;51.186;3.236;2024-02-26T07:44:16;47.27;;;16.00;;
13520;SDS011;6832;51.186;3.236;2024-02-26T07:46:43;65.40;;;18.67;;
13520;SDS011;6832;51.186;3.236;2024-02-26T07:49:11;38.37;;;15.00;;
13520;SDS011;6832;51.186;3.236;2024-02-26T07:51:38;63.37;;;24.03;;
13520;SDS011;6832;51.186;3.236;2024-02-26T07:54:05;46.47;;;16.20;;
13520;SDS011;6832;51.186;3.236;2024-02-26T07:56:32;47.30;;;14.93;;
13520;SDS011;6832;51.186;3.236;2024-02-26T07:58:59;41.73;;;17.87;;
13520;SDS011;6832;51.186;3.236;2024-02-26T08:01:26;37.60;;;15.03;;
13520;SDS011;6832;51.186;3.236;2024-02-26T08:03:53;47.97;;;15.83;;
13520;SDS011;6832;51.186;3.236;2024-02-26T08:06:22;41.97;;;15.83;;
13520;SDS011;6832;51.186;3.236;2024-02-26T08:08:49;55.17;;;17.37;;
13520;SDS011;6832;51.186;3.236;2024-02-26T08:11:16;38.13;;;16.70;;
13520;SDS011;6832;51.186;3.236;2024-02-26T08:13:43;35.33;;;15.73;;
13520;SDS011;6832;51.186;3.236;2024-02-26T08:16:10;43.37;;;16.50;;
13520;SDS011;6832;51.186;3.236;2024-02-26T08:18:37;35.43;;;16.80;;
13520;SDS011;6832;51.186;3.236;2024-02-26T08:21:04;48.47;;;16.83;;
13520;SDS011;6832;51.186;3.236;2024-02-26T08:23:32;39.03;;;16.00;;
13520;SDS011;6832;51.186;3.236;2024-02-26T08:25:59;50.13;;;16.87;;
13520;SDS011;6832;51.186;3.236;2024-02-26T08:28:26;41.30;;;15.73;;
13520;SDS011;6832;51.186;3.236;2024-02-26T08:30:52;41.70;;;15.57;;
13520;SDS011;6832;51.186;3.236;2024-02-26T08:33:19;44.60;;;15.40;;
13520;SDS011;6832;51.186;3.236;2024-02-26T08:35:46;40.43;;;15.90;;
13520;SDS011;6832;51.186;3.236;2024-02-26T08:38:13;41.57;;;16.90;;
13520;SDS011;6832;51.186;3.236;2024-02-26T08:40:41;47.90;;;17.03;;
13520;SDS011;6832;51.186;3.236;2024-02-26T08:43:08;39.37;;;16.97;;
13520;SDS011;6832;51.186;3.236;2024-02-26T08:45:35;41.67;;;15.93;;
13520;SDS011;6832;51.186;3.236;2024-02-26T08:48:02;49.10;;;17.70;;
13520;SDS011;6832;51.186;3.236;2024-02-26T08:50:29;39.20;;;16.87;;
13520;SDS011;6832;51.186;3.236;2024-02-26T08:52:56;44.03;;;15.43;;
13520;SDS011;6832;51.186;3.236;2024-02-26T08:55:23;40.67;;;15.80;;
13520;SDS011;6832;51.186;3.236;2024-02-26T08:57:51;46.77;;;17.57;;
13520;SDS011;6832;51.186;3.236;2024-02-26T09:00:18;35.73;;;15.97;;
13520;SDS011;6832;51.186;3.236;2024-02-26T09:02:45;36.63;;;16.03;;
13520;SDS011;6832;51.186;3.236;2024-02-26T09:05:12;41.83;;;17.37;;
13520;SDS011;6832;51.186;3.236;2024-02-26T09:07:39;47.20;;;18.33;;
13520;SDS011;6832;51.186;3.236;2024-02-26T09:10:07;43.70;;;17.57;;
13520;SDS011;6832;51.186;3.236;2024-02-26T09:12:35;57.17;;;17.27;;
13520;SDS011;6832;51.186;3.236;2024-02-26T09:15:05;48.87;;;17.77;;
13520;SDS011;6832;51.186;3.236;2024-02-26T09:17:33;51.13;;;18.00;;
13520;SDS011;6832;51.186;3.236;2024-02-26T09:20:00;37.13;;;15.37;;
13520;SDS011;6832;51.186;3.236;2024-02-26T09:22:28;38.77;;;15.80;;
13520;SDS011;6832;51.186;3.236;2024-02-26T09:24:54;31.97;;;15.53;;
13520;SDS011;6832;51.186;3.236;2024-02-26T09:27:21;79.23;;;18.23;;
13520;SDS011;6832;51.186;3.236;2024-02-26T09:29:48;41.23;;;17.43;;
13520;SDS011;6832;51.186;3.236;2024-02-26T09:32:18;40.23;;;16.60;;
13520;SDS011;6832;51.186;3.236;2024-02-26T09:34:44;36.97;;;16.57;;
13520;SDS011;6832;51.186;3.236;2024-02-26T09:37:11;67.17;;;18.43;;
13520;SDS011;6832;51.186;3.236;2024-02-26T09:39:38;32.17;;;15.73;;
13520;SDS011;6832;51.186;3.236;2024-02-26T09:42:05;43.33;;;16.43;;
13520;SDS011;6832;51.186;3.236;2024-02-26T09:44:35;38.23;;;16.73;;
13520;SDS011;6832;51.186;3.236;2024-02-26T09:47:07;36.13;;;16.60;;
13520;SDS011;6832;51.186;3.236;2024-02-26T09:49:37;41.97;;;15.97;;
13520;SDS011;6832;51.186;3.236;2024-02-26T09:52:05;42.00;;;16.70;;
13520;SDS011;6832;51.186;3.236;2024-02-26T09:54:34;47.27;;;17.07;;
13520;SDS011;6832;51.186;3.236;2024-02-26T09:57:02;51.30;;;18.90;;
13520;SDS011;6832;51.186;3.236;2024-02-26T09:59:29;46.83;;;16.90;;
13520;SDS011;6832;51.186;3.236;2024-02-26T10:02:05;60.97;;;18.47;;
13520;SDS011;6832;51.186;3.236;2024-02-26T10:04:35;49.77;;;17.10;;
13520;SDS011;6832;51.186;3.236;2024-02-26T10:07:04;45.20;;;17.83;;
13520;SDS011;6832;51.186;3.236;2024-02-26T10:09:31;37.73;;;15.07;;
13520;SDS011;6832;51.186;3.236;2024-02-26T10:11:58;54.23;;;17.87;;
13520;SDS011;6832;51.186;3.236;2024-02-26T10:14:25;44.50;;;15.80;;
13520;SDS011;6832;51.186;3.236;2024-02-26T10:16:52;47.57;;;16.67;;
13520;SDS011;6832;51.186;3.236;2024-02-26T10:19:26;53.47;;;17.47;;
13520;SDS011;6832;51.186;3.236;2024-02-26T10:21:56;60.20;;;17.73;;
13520;SDS011;6832;51.186;3.236;2024-02-26T10:24:25;56.57;;;16.83;;
13520;SDS011;6832;51.186;3.236;2024-02-26T10:26:52;50.63;;;21.80;;
13520;SDS011;6832;51.186;3.236;2024-02-26T10:29:20;53.10;;;17.05;;
13520;SDS011;6832;51.186;3.236;2024-02-26T10:31:48;46.23;;;16.53;;
13520;SDS011;6832;51.186;3.236;2024-02-26T10:34:16;42.57;;;20.07;;
13520;SDS011;6832;51.186;3.236;2024-02-26T10:36:44;41.20;;;15.57;;
13520;SDS011;6832;51.186;3.236;2024-02-26T10:39:11;45.03;;;15.70;;
13520;SDS011;6832;51.186;3.236;2024-02-26T10:41:41;42.80;;;18.03;;
13520;SDS011;6832;51.186;3.236;2024-02-26T10:44:08;49.50;;;16.47;;
13520;SDS011;6832;51.186;3.236;2024-02-26T10:46:37;41.70;;;16.63;;
13520;SDS011;6832;51.186;3.236;2024-02-26T10:49:04;45.10;;;15.80;;
13520;SDS011;6832;51.186;3.236;2024-02-26T10:51:33;48.63;;;17.20;;
13520;SDS011;6832;51.186;3.236;2024-02-26T10:54:04;60.37;;;18.43;;
13520;SDS011;6832;51.186;3.236;2024-02-26T10:56:33;43.10;;;21.13;;
13520;SDS011;6832;51.186;3.236;2024-02-26T10:59:04;39.03;;;16.37;;
13520;SDS011;6832;51.186;3.236;2024-02-26T11:01:35;57.43;;;17.17;;
13520;SDS011;6832;51.186;3.236;2024-02-26T11:04:03;86.87;;;20.20;;
13520;SDS011;6832;51.186;3.236;2024-02-26T11:06:31;66.60;;;17.87;;
13520;SDS011;6832;51.186;3.236;2024-02-26T11:08:59;47.03;;;17.23;;
13520;SDS011;6832;51.186;3.236;2024-02-26T11:11:27;57.63;;;17.73;;
13520;SDS011;6832;51.186;3.236;2024-02-26T11:13:55;52.10;;;17.70;;
13520;SDS011;6832;51.186;3.236;2024-02-26T11:16:24;55.20;;;16.70;;
13520;SDS011;6832;51.186;3.236;2024-02-26T11:18:53;45.93;;;16.27;;
13520;SDS011;6832;51.186;3.236;2024-02-26T11:21:21;53.23;;;17.70;;
13520;SDS011;6832;51.186;3.236;2024-02-26T11:23:52;52.30;;;17.33;;
13520;SDS011;6832;51.186;3.236;2024-02-26T11:26:20;50.07;;;17.90;;
13520;SDS011;6832;51.186;3.236;2024-02-26T11:28:49;52.33;;;17.17;;
13520;SDS011;6832;51.186;3.236;2024-02-26T11:31:18;48.30;;;16.43;;
13520;SDS011;6832;51.186;3.236;2024-02-26T11:33:53;54.10;;;15.90;;
13520;SDS011;6832;51.186;3.236;2024-02-26T11:36:20;52.13;;;17.77;;
13520;SDS011;6832;51.186;3.236;2024-02-26T11:38:49;64.43;;;17.00;;
13520;SDS011;6832;51.186;3.236;2024-02-26T11:41:18;56.37;;;16.97;;
13520;SDS011;6832;51.186;3.236;2024-02-26T11:43:49;63.47;;;17.80;;
13520;SDS011;6832;51.186;3.236;2024-02-26T11:46:26;51.17;;;17.13;;
13520;SDS011;6832;51.186;3.236;2024-02-26T11:48:57;53.17;;;18.03;;
13520;SDS011;6832;51.186;3.236;2024-02-26T11:51:25;51.80;;;17.10;;
13520;SDS011;6832;51.186;3.236;2024-02-26T11:53:53;43.10;;;14.67;;
13520;SDS011;6832;51.186;3.236;2024-02-26T11:56:22;42.87;;;15.20;;
13520;SDS011;6832;51.186;3.236;2024-02-26T11:58:57;63.83;;;17.77;;
13520;SDS011;6832;51.186;3.236;2024-02-26T12:01:40;54.57;;;17.77;;
13520;SDS011;6832;51.186;3.236;2024-02-26T12:04:12;92.87;;;20.30;;
13520;SDS011;6832;51.186;3.236;2024-02-26T12:06:45;59.03;;;16.90;;
13520;SDS011;6832;51.186;3.236;2024-02-26T12:09:13;51.97;;;16.37;;
13520;SDS011;6832;51.186;3.236;2024-02-26T12:11:56;68.50;;;17.13;;
13520;SDS011;6832;51.186;3.236;2024-02-26T12:14:25;59.30;;;17.30;;
13520;SDS011;6832;51.186;3.236;2024-02-26T12:16:52;56.67;;;16.00;;
13520;SDS011;6832;51.186;3.236;2024-02-26T12:19:22;46.23;;;16.63;;
13520;SDS011;6832;51.186;3.236;2024-02-26T12:21:51;53.33;;;16.40;;
13520;SDS011;6832;51.186;3.236;2024-02-26T12:24:19;36.13;;;15.97;;
13520;SDS011;6832;51.186;3.236;2024-02-26T12:26:47;40.17;;;15.73;;
13520;SDS011;6832;51.186;3.236;2024-02-26T12:29:14;62.00;;;17.70;;
13520;SDS011;6832;51.186;3.236;2024-02-26T12:31:40;45.87;;;16.40;;
13520;SDS011;6832;51.186;3.236;2024-02-26T12:34:08;47.03;;;15.37;;
13520;SDS011;6832;51.186;3.236;2024-02-26T12:36:37;48.87;;;15.70;;
13520;SDS011;6832;51.186;3.236;2024-02-26T12:39:05;52.97;;;17.17;;
13520;SDS011;6832;51.186;3.236;2024-02-26T12:41:34;52.03;;;15.70;;
13520;SDS011;6832;51.186;3.236;2024-02-26T12:44:01;54.93;;;16.80;;
13520;SDS011;6832;51.186;3.236;2024-02-26T12:46:28;42.97;;;16.17;;
13520;SDS011;6832;51.186;3.236;2024-02-26T12:48:55;48.83;;;17.47;;
13520;SDS011;6832;51.186;3.236;2024-02-26T12:51:24;52.80;;;16.33;;
13520;SDS011;6832;51.186;3.236;2024-02-26T12:53:53;48.30;;;16.07;;
13520;SDS011;6832;51.186;3.236;2024-02-26T12:56:21;88.60;;;25.40;;
13520;SDS011;6832;51.186;3.236;2024-02-26T12:58:49;40.30;;;16.20;;
13520;SDS011;6832;51.186;3.236;2024-02-26T13:01:19;36.77;;;16.77;;
13520;SDS011;6832;51.186;3.236;2024-02-26T13:03:49;52.50;;;16.23;;
13520;SDS011;6832;51.186;3.236;2024-02-26T13:06:17;47.30;;;15.20;;
13520;SDS011;6832;51.186;3.236;2024-02-26T13:08:45;54.57;;;16.20;;
13520;SDS011;6832;51.186;3.236;2024-02-26T13:11:13;45.70;;;17.07;;
13520;SDS011;6832;51.186;3.236;2024-02-26T13:13:41;44.20;;;15.93;;
13520;SDS011;6832;51.186;3.236;2024-02-26T13:16:10;56.17;;;16.47;;
13520;SDS011;6832;51.186;3.236;2024-02-26T13:18:40;43.87;;;16.20;;
13520;SDS011;6832;51.186;3.236;2024-02-26T13:21:08;59.97;;;16.80;;
13520;SDS011;6832;51.186;3.236;2024-02-26T13:23:36;40.17;;;15.97;;
13520;SDS011;6832;51.186;3.236;2024-02-26T13:26:03;47.27;;;17.37;;
13520;SDS011;6832;51.186;3.236;2024-02-26T13:28:32;58.57;;;17.97;;
13520;SDS011;6832;51.186;3.236;2024-02-26T13:30:59;40.70;;;15.60;;
13520;SDS011;6832;51.186;3.236;2024-02-26T13:33:28;55.37;;;18.23;;
13520;SDS011;6832;51.186;3.236;2024-02-26T13:35:56;41.93;;;16.30;;
13520;SDS011;6832;51.186;3.236;2024-02-26T13:38:24;57.20;;;17.53;;
13520;SDS011;6832;51.186;3.236;2024-02-26T13:40:51;40.30;;;17.53;;
13520;SDS011;6832;51.186;3.236;2024-02-26T13:43:18;45.93;;;17.30;;
13520;SDS011;6832;51.186;3.236;2024-02-26T13:45:46;51.57;;;17.40;;
13520;SDS011;6832;51.186;3.236;2024-02-26T13:48:14;49.30;;;16.43;;
13520;SDS011;6832;51.186;3.236;2024-02-26T13:50:41;48.53;;;19.20;;
13520;SDS011;6832;51.186;3.236;2024-02-26T13:53:10;48.03;;;16.00;;
13520;SDS011;6832;51.186;3.236;2024-02-26T13:55:39;35.13;;;15.13;;
13520;SDS011;6832;51.186;3.236;2024-02-26T13:58:07;71.50;;;17.77;;
13520;SDS011;6832;51.186;3.236;2024-02-26T14:00:37;52.20;;;15.33;;
13520;SDS011;6832;51.186;3.236;2024-02-26T14:03:05;37.17;;;15.47;;
13520;SDS011;6832;51.186;3.236;2024-02-26T14:05:32;41.27;;;16.33;;
13520;SDS011;6832;51.186;3.236;2024-02-26T14:07:59;54.50;;;20.43;;
13520;SDS011;6832;51.186;3.236;2024-02-26T14:10:26;45.73;;;16.07;;
13520;SDS011;6832;51.186;3.236;2024-02-26T14:12:53;41.07;;;16.17;;
13520;SDS011;6832;51.186;3.236;2024-02-26T14:15:20;55.97;;;16.20;;
13520;SDS011;6832;51.186;3.236;2024-02-26T14:17:47;43.77;;;16.03;;
13520;SDS011;6832;51.186;3.236;2024-02-26T14:20:19;54.90;;;16.47;;
13520;SDS011;6832;51.186;3.236;2024-02-26T14:22:47;48.87;;;16.50;;
13520;SDS011;6832;51.186;3.236;2024-02-26T14:25:14;59.13;;;17.77;;
13520;SDS011;6832;51.186;3.236;2024-02-26T14:27:41;37.73;;;15.70;;
13520;SDS011;6832;51.186;3.236;2024-02-26T14:30:08;40.63;;;16.60;;
13520;SDS011;6832;51.186;3.236;2024-02-26T14:32:35;39.50;;;16.33;;
13520;SDS011;6832;51.186;3.236;2024-02-26T14:35:03;38.43;;;15.70;;
13520;SDS011;6832;51.186;3.236;2024-02-26T14:37:34;42.60;;;22.57;;